Sunday, August 28, 2016
07:04 UTC
  |  Log In   |  Register Free
Airport Search:

Indiana County/Jimmy Stewart Fld/ Airport
(KIDI)

Indiana County/Jimmy Stewart Fld/ Airport Diagram
No Airport Diagram Available

FAA data valid effective Jul 21 2016 - Sep 15 2016 (unless otherwise noted).

 
 
 
 
 
 
 
 
 
 
 
 
 
 
Current Aviation Weather for KIDI

Weather Summary


The most recent METAR observation for IDI was updated at: 12:55 UTC
METAR for IDI is not available. Closest METAR is for
METAR

METAR KIDI 280655Z 19003KT 10SM CLR 23/19 A3022 RMK A01

METAR KIDI 280635Z 19004KT 10SM FEW049 23/19 A3022 RMK A01

METAR KIDI 280615Z 00000KT 10SM CLR 23/19 A3022 RMK A01

METAR KIDI 280555Z 00000KT 10SM CLR 23/19 A3022 RMK A01

METAR KIDI 280535Z 19005KT 10SM CLR 23/20 A3022 RMK A01

METAR KIDI 280515Z 19007KT 10SM FEW041 24/19 A3022 RMK A01

METAR KIDI 280455Z 19008KT 10SM FEW040 FEW049 24/19 A3022 RMK A01

METAR KIDI 280435Z 17011KT 10SM CLR 25/19 A3022 RMK A01

METAR KIDI 280415Z 16009KT 10SM CLR 25/19 A3021 RMK A01

METAR KDUJ 280653Z 14005KT 10SM CLR 22/17 A3021 RMK AO2 SLP213 T02170172

METAR KJST 280654Z 20004KT 10SM CLR 22/18 A3024 RMK AO2 SLP224 T02170178

METAR KLBE 280655Z 00000KT 10SM CLR 22/20 A3018 RMK AO2

TAF for IDI is not available.
TAF

KJST - TAF KJST 280557Z 2806/2906 16007KT P6SM SCT200

KJST - FM281500 19007KT P6SM SCT050

KJST - FM281900 21007KT P6SM BKN050 PROB30 2819/2822 5SM -TSRA BKN040CB

KJST - FM290000 VRB03KT P6SM SCT100 =

KLBE - TAF KLBE 280520Z 2806/2906 15005KT P6SM SCT250

KLBE - FM281500 21005KT P6SM SCT035

KLBE - FM282100 23005KT P6SM VCTS BKN040CB

KLBE - FM290100 VRB03KT P6SM VCSH BKN060 =

KDUJ - TAF KDUJ 280520Z 2806/2906 14005KT P6SM SCT250

KDUJ - FM281500 22005KT P6SM SCT035

KDUJ - FM282000 23005KT P6SM VCTS BKN040CB

KDUJ - FM290000 27003KT P6SM VCSH BKN060 =

GlobalAir.com is loading additional information.
 Current Weather at IDI
73.0 F° (23.0 C°)

North winds at 0.0 mph
Pressure:
30.22 in
Humidity:
78%
Wind:
North at 0.0 mph
Dew Point:
66.2 F° (19.0 C°)
Visibility:
10.00 mi
IDI NOAA Radar




Find All Airport Services Find A Hotel Find A Rental Car Find A Golf Course Find A Restaurant $100 Hamburger



Airport Weather Forecast for KIDI

Translated METAR for KIDI (0655 UTC)
METAR:
KIDI 280655Z AUTO Indiana County/J Stewart Fld/, Indiana, PA (KIDI). Aug 28, 0655Z, Automated. Wind from 190° at 3 knots, 10 statute miles visibility, Clear Skies, Temperature 23°C, Dewpoint 19°C, Altimeter is 30.22. Remarks: A01
Conditions at:
KIDI (Indiana County/Jimmy Stewart Fld/, PA) observed 0655 UTC 28 August 2016
Temperature:
73.0 F° (23.0 C°)
Dewpoint:
not reported - refer to area weather report
Pressure:
0.01 inches Hg (0.3 mb)
Winds:
not reported
Visibility:
10.00
Ceiling:
at least 12,000 feet AGL
Clouds:
not reported - refer to area weather report
Remarks:
site is un-manned

Translated TAF for TAF for IDI is not available. Refer to local area forecast.
FBO's on the Field
FBO Company Facility Photos Services Transportation Aviation Fuel Prices: Prices include tax
Catering Weather Repair Courtesy Rental Type 100LL JetA JetA+ MOGAS 8087
 
Indiana County Jimmy Stewart Airport

Currently rated 5 by 1 person
FS:Phillips 66
Last Updated: Jul-28
Login to update fuel prices
SS:
Contact Indiana County Jimmy Stewart AirportMore FBO Information
 
Add another FBO Facility Photos Catering Weather Repair Courtesy Rental Type 100LL JetA JetA+ MOGAS 8087
Services Transportation Aviation Fuel Prices: Prices include tax


model-print
model-print
model-print
model-print